Tremembe, Brazil
Current Conditions -  °F | °C
As of 11:00 AM on Thursday 27 Nov 2014 (Local Time) from SBGW Reporting Station
Rain Showers Rain Showers  
Wind Chill: 75°   Ceiling: 1200
Heat Index: 75°   Visibility: 6mi
Dew Point: 70°   Wind: 6mph
Humidity: 83%   Direction: 260°W
Pressure: 29.94"   Gusts: NA
Location:  22.96°S, 45.55°W
Report Text: SBGW 271300Z 26005KT 9000 VCSH BKN012 SCT020 FEW030TCU BKN070 24/21 Q1014
Loading
Personal Weather Stations






























Interactive Weather Map New forecast layout! Learn more

10-Day Weather Forecast

Advertisements
Track Severe Weather on mobile